Dover, OH

2:14 PM EDT on March 28, 2015 (GMT -0400)
APRSWXNET | | Change Station
CLOSE
Current Station
Personal Weather Station
Location: Dover, OH
Elevation: 892 ft
Nearby Weather Stations

Elev 892 ft 40.52 °N, 81.49 °W | Updated 216 days ago

Clear
Clear
31 °F
Feels Like 20 °F
N
14
Wind Variable Wind from NNW
Gusts 19 mph

Today
High -- | Low -- °F
--% Chance of Precip.
Yesterday
High -- | Low -- °F
Precip. -- in
7:16 AM 7:46 PM
Waxing Gibbous, 64% visible
Pressure 30.25 in
Visibility 10.0 miles
Clouds Clear
Windchill 20 °F
Dew Point -2 °F
Humidity 24%
Rainfall in
Snow Depth Not available.
UV 8 out of 12
Pollen 2.90 out of 12
Air Quality Not available.
Flu Activity Not available.
METAR KPHD 281753Z AUTO 29012G19KT 10SM CLR M01/M14 A3021 RMK AO2 SLP242 T10111139 11006 21078 51001

More Conditions Fewer Conditions

Pressure 30.25 in
Visibility 10.0 miles
Clouds Clear
Windchill 20 °F
Dew Point -2 °F
Humidity 24%
Rainfall in
Snow Depth Not available.
UV 8 out of 12
Pollen 2.90 out of 12
Air Quality Not available.
Flu Activity Not available.
METAR KPHD 281753Z AUTO 29012G19KT 10SM CLR M01/M14 A3021 RMK AO2 SLP242 T10111139 11006 21078 51001

More Conditions Fewer Conditions

10-Day Weather Forecast

Almanac

Astronomy

Mar. 28, 2015 Rise Set
Actual Time
Civil Twilight
Nautical Twilight
Astronomical Twilight
Moon
Length of Visible Light
Length of Day
Tomorrow will be .
, % of the Moon is Illuminated

Today's Extremes

State Highs State Lows

Community

WunderPhotos

Upload Photos

1,809,050 photos uploaded!

WunderBlogs® & News

Nearby

Air Quality

  Air Quality AQ Index Pollutant
Not available.

Snow Depth

Station Depth Elevation

Earthquake Activity

City Distance Mag. Time & Date
Minimum magnitude displayed is 2.5.

Coastal Water Temperatures

Place Temperature

Stations

Nearby Weather Stations

Station Location Temp. Windchill Dew Point Humidity Wind Precip. Elev Updated Type